sensor_id;sensor_type;location;lat;lon;timestamp;temperature;humidity
2647;DHT22;1333;50.958;6.770;2023-04-01T00:01:54;10.90;99.90
2647;DHT22;1333;50.958;6.770;2023-04-01T00:04:20;10.80;99.90
2647;DHT22;1333;50.958;6.770;2023-04-01T00:06:46;10.80;99.90
2647;DHT22;1333;50.958;6.770;2023-04-01T00:09:13;10.90;99.90
2647;DHT22;1333;50.958;6.770;2023-04-01T00:11:38;10.90;99.90
2647;DHT22;1333;50.958;6.770;2023-04-01T00:14:06;10.90;99.90
2647;DHT22;1333;50.958;6.770;2023-04-01T00:16:32;10.90;99.90
2647;DHT22;1333;50.958;6.770;2023-04-01T00:18:58;10.90;99.90
2647;DHT22;1333;50.958;6.770;2023-04-01T00:21:25;10.90;99.90
2647;DHT22;1333;50.958;6.770;2023-04-01T00:23:50;10.90;99.90
2647;DHT22;1333;50.958;6.770;2023-04-01T00:26:17;10.90;99.90
2647;DHT22;1333;50.958;6.770;2023-04-01T00:28:45;10.90;99.90
2647;DHT22;1333;50.958;6.770;2023-04-01T00:31:11;11.00;99.90
2647;DHT22;1333;50.958;6.770;2023-04-01T00:33:38;10.90;99.90
2647;DHT22;1333;50.958;6.770;2023-04-01T00:36:15;11.00;99.90
2647;DHT22;1333;50.958;6.770;2023-04-01T00:38:41;11.00;99.90
2647;DHT22;1333;50.958;6.770;2023-04-01T00:41:09;11.00;99.90
2647;DHT22;1333;50.958;6.770;2023-04-01T00:43:39;11.00;99.90
2647;DHT22;1333;50.958;6.770;2023-04-01T00:46:06;11.00;99.90
2647;DHT22;1333;50.958;6.770;2023-04-01T00:48:34;11.00;99.90
2647;DHT22;1333;50.958;6.770;2023-04-01T00:53:33;10.90;99.90
2647;DHT22;1333;50.958;6.770;2023-04-01T00:56:13;10.90;99.90
2647;DHT22;1333;50.958;6.770;2023-04-01T00:59:00;10.90;99.90
2647;DHT22;1333;50.958;6.770;2023-04-01T01:01:28;10.90;99.90
2647;DHT22;1333;50.958;6.770;2023-04-01T01:03:55;10.90;99.90
2647;DHT22;1333;50.958;6.770;2023-04-01T01:12:34;10.90;99.90
2647;DHT22;1333;50.958;6.770;2023-04-01T01:25:46;10.70;99.90
2647;DHT22;1333;50.958;6.770;2023-04-01T01:36:42;10.60;99.90
2647;DHT22;1333;50.958;6.770;2023-04-01T01:39:12;10.60;99.90
2647;DHT22;1333;50.958;6.770;2023-04-01T01:41:40;10.60;99.90
2647;DHT22;1333;50.958;6.770;2023-04-01T01:44:08;10.60;99.90
2647;DHT22;1333;50.958;6.770;2023-04-01T01:46:38;10.60;99.90
2647;DHT22;1333;50.958;6.770;2023-04-01T01:49:05;10.50;99.90
2647;DHT22;1333;50.958;6.770;2023-04-01T01:51:31;10.40;99.90
2647;DHT22;1333;50.958;6.770;2023-04-01T01:53:57;10.40;99.90
2647;DHT22;1333;50.958;6.770;2023-04-01T01:56:26;10.30;99.90
2647;DHT22;1333;50.958;6.770;2023-04-01T01:59:03;10.30;99.90
2647;DHT22;1333;50.958;6.770;2023-04-01T02:01:33;10.20;99.90
2647;DHT22;1333;50.958;6.770;2023-04-01T02:04:00;10.10;99.90
2647;DHT22;1333;50.958;6.770;2023-04-01T02:06:29;10.10;99.90
2647;DHT22;1333;50.958;6.770;2023-04-01T02:08:56;10.10;99.90
2647;DHT22;1333;50.958;6.770;2023-04-01T02:11:40;10.00;99.90
2647;DHT22;1333;50.958;6.770;2023-04-01T02:14:17;10.10;99.90
2647;DHT22;1333;50.958;6.770;2023-04-01T02:16:51;10.00;99.90
2647;DHT22;1333;50.958;6.770;2023-04-01T02:19:18;9.90;99.90
2647;DHT22;1333;50.958;6.770;2023-04-01T02:21:54;9.90;99.90
2647;DHT22;1333;50.958;6.770;2023-04-01T02:24:22;9.90;99.90
2647;DHT22;1333;50.958;6.770;2023-04-01T02:26:51;9.90;99.90
2647;DHT22;1333;50.958;6.770;2023-04-01T02:29:20;9.80;99.90
2647;DHT22;1333;50.958;6.770;2023-04-01T02:31:47;9.90;99.90
2647;DHT22;1333;50.958;6.770;2023-04-01T02:34:13;9.90;99.90
2647;DHT22;1333;50.958;6.770;2023-04-01T02:36:39;9.90;99.90
2647;DHT22;1333;50.958;6.770;2023-04-01T02:39:06;9.90;99.90
2647;DHT22;1333;50.958;6.770;2023-04-01T02:41:39;9.90;99.90
2647;DHT22;1333;50.958;6.770;2023-04-01T02:44:05;9.90;99.90
2647;DHT22;1333;50.958;6.770;2023-04-01T02:46:30;9.90;99.90
2647;DHT22;1333;50.958;6.770;2023-04-01T02:48:56;9.90;99.90
2647;DHT22;1333;50.958;6.770;2023-04-01T02:51:21;9.90;99.90
2647;DHT22;1333;50.958;6.770;2023-04-01T02:53:47;10.00;99.90
2647;DHT22;1333;50.958;6.770;2023-04-01T02:56:12;9.90;99.90
2647;DHT22;1333;50.958;6.770;2023-04-01T02:58:38;10.00;99.90
2647;DHT22;1333;50.958;6.770;2023-04-01T03:01:03;10.00;99.90
2647;DHT22;1333;50.958;6.770;2023-04-01T03:03:29;10.00;99.90
2647;DHT22;1333;50.958;6.770;2023-04-01T03:05:54;10.00;99.90
2647;DHT22;1333;50.958;6.770;2023-04-01T03:08:25;10.00;99.90
2647;DHT22;1333;50.958;6.770;2023-04-01T03:10:50;10.10;99.90
2647;DHT22;1333;50.958;6.770;2023-04-01T03:13:16;10.10;99.90
2647;DHT22;1333;50.958;6.770;2023-04-01T03:15:41;10.10;99.90
2647;DHT22;1333;50.958;6.770;2023-04-01T03:18:07;10.10;99.90
2647;DHT22;1333;50.958;6.770;2023-04-01T03:20:32;10.20;99.90
2647;DHT22;1333;50.958;6.770;2023-04-01T03:22:58;10.10;99.90
2647;DHT22;1333;50.958;6.770;2023-04-01T03:25:23;10.20;99.90
2647;DHT22;1333;50.958;6.770;2023-04-01T03:27:49;10.20;99.90
2647;DHT22;1333;50.958;6.770;2023-04-01T03:30:15;10.10;99.90
2647;DHT22;1333;50.958;6.770;2023-04-01T03:32:40;10.20;99.90
2647;DHT22;1333;50.958;6.770;2023-04-01T03:35:06;10.10;99.90
2647;DHT22;1333;50.958;6.770;2023-04-01T03:37:32;10.10;99.90
2647;DHT22;1333;50.958;6.770;2023-04-01T03:39:57;10.10;99.90
2647;DHT22;1333;50.958;6.770;2023-04-01T03:42:23;10.10;99.90
2647;DHT22;1333;50.958;6.770;2023-04-01T03:44:48;10.00;99.90
2647;DHT22;1333;50.958;6.770;2023-04-01T03:47:15;10.00;99.90
2647;DHT22;1333;50.958;6.770;2023-04-01T03:49:40;10.00;99.90
2647;DHT22;1333;50.958;6.770;2023-04-01T03:52:09;10.00;99.90
2647;DHT22;1333;50.958;6.770;2023-04-01T03:54:36;10.00;99.90
2647;DHT22;1333;50.958;6.770;2023-04-01T03:57:01;10.10;99.90
2647;DHT22;1333;50.958;6.770;2023-04-01T03:59:27;10.10;99.90
2647;DHT22;1333;50.958;6.770;2023-04-01T04:01:52;10.00;99.90
2647;DHT22;1333;50.958;6.770;2023-04-01T04:04:18;10.00;99.90
2647;DHT22;1333;50.958;6.770;2023-04-01T04:06:43;10.00;99.90
2647;DHT22;1333;50.958;6.770;2023-04-01T04:09:09;10.10;99.90
2647;DHT22;1333;50.958;6.770;2023-04-01T04:11:34;10.00;99.90
2647;DHT22;1333;50.958;6.770;2023-04-01T04:14:00;10.00;99.90
2647;DHT22;1333;50.958;6.770;2023-04-01T04:16:26;10.00;99.90
2647;DHT22;1333;50.958;6.770;2023-04-01T04:18:51;10.00;99.90
2647;DHT22;1333;50.958;6.770;2023-04-01T04:21:17;9.90;99.90
2647;DHT22;1333;50.958;6.770;2023-04-01T04:23:43;9.90;99.90
2647;DHT22;1333;50.958;6.770;2023-04-01T04:26:11;9.90;99.90
2647;DHT22;1333;50.958;6.770;2023-04-01T04:28:37;9.90;99.90
2647;DHT22;1333;50.958;6.770;2023-04-01T04:31:03;9.90;99.90
2647;DHT22;1333;50.958;6.770;2023-04-01T04:33:30;9.90;99.90
2647;DHT22;1333;50.958;6.770;2023-04-01T04:35:57;9.90;99.90
2647;DHT22;1333;50.958;6.770;2023-04-01T04:38:23;9.90;99.90
2647;DHT22;1333;50.958;6.770;2023-04-01T04:40:48;9.90;99.90
2647;DHT22;1333;50.958;6.770;2023-04-01T04:43:16;9.90;99.90
2647;DHT22;1333;50.958;6.770;2023-04-01T04:45:42;9.80;99.90
2647;DHT22;1333;50.958;6.770;2023-04-01T04:48:08;9.80;99.90
2647;DHT22;1333;50.958;6.770;2023-04-01T04:50:35;9.80;99.90
2647;DHT22;1333;50.958;6.770;2023-04-01T04:53:01;9.80;99.90
2647;DHT22;1333;50.958;6.770;2023-04-01T04:55:26;9.80;99.90
2647;DHT22;1333;50.958;6.770;2023-04-01T04:57:52;9.70;99.90
2647;DHT22;1333;50.958;6.770;2023-04-01T05:00:18;9.70;99.90
2647;DHT22;1333;50.958;6.770;2023-04-01T05:02:43;9.70;99.90
2647;DHT22;1333;50.958;6.770;2023-04-01T05:05:09;9.70;99.90
2647;DHT22;1333;50.958;6.770;2023-04-01T05:07:35;9.70;99.90
2647;DHT22;1333;50.958;6.770;2023-04-01T05:10:01;9.70;99.90
2647;DHT22;1333;50.958;6.770;2023-04-01T05:12:27;9.70;99.90
2647;DHT22;1333;50.958;6.770;2023-04-01T05:14:52;9.80;99.90
2647;DHT22;1333;50.958;6.770;2023-04-01T05:17:18;9.80;99.90
2647;DHT22;1333;50.958;6.770;2023-04-01T05:19:43;9.70;99.90
2647;DHT22;1333;50.958;6.770;2023-04-01T05:22:09;9.70;99.90
2647;DHT22;1333;50.958;6.770;2023-04-01T05:24:34;9.80;99.90
2647;DHT22;1333;50.958;6.770;2023-04-01T05:27:00;9.80;99.90
2647;DHT22;1333;50.958;6.770;2023-04-01T05:29:26;9.80;99.90
2647;DHT22;1333;50.958;6.770;2023-04-01T05:31:52;9.80;99.90
2647;DHT22;1333;50.958;6.770;2023-04-01T05:34:17;9.80;99.90
2647;DHT22;1333;50.958;6.770;2023-04-01T05:36:43;9.80;99.90
2647;DHT22;1333;50.958;6.770;2023-04-01T05:39:09;9.80;99.90
2647;DHT22;1333;50.958;6.770;2023-04-01T05:41:35;9.80;99.90
2647;DHT22;1333;50.958;6.770;2023-04-01T05:44:01;9.80;99.90
2647;DHT22;1333;50.958;6.770;2023-04-01T05:46:27;9.80;99.90
2647;DHT22;1333;50.958;6.770;2023-04-01T05:48:52;9.80;99.90
2647;DHT22;1333;50.958;6.770;2023-04-01T05:51:18;9.80;99.90
2647;DHT22;1333;50.958;6.770;2023-04-01T05:53:43;9.90;99.90
2647;DHT22;1333;50.958;6.770;2023-04-01T05:56:09;9.90;99.90
2647;DHT22;1333;50.958;6.770;2023-04-01T05:58:36;9.90;99.90
2647;DHT22;1333;50.958;6.770;2023-04-01T06:01:10;9.90;99.90
2647;DHT22;1333;50.958;6.770;2023-04-01T06:03:36;9.80;99.90
2647;DHT22;1333;50.958;6.770;2023-04-01T06:06:02;9.80;99.90
2647;DHT22;1333;50.958;6.770;2023-04-01T06:08:30;9.80;99.90
2647;DHT22;1333;50.958;6.770;2023-04-01T06:38:27;10.30;99.90
2647;DHT22;1333;50.958;6.770;2023-04-01T06:51:53;10.50;99.90
2647;DHT22;1333;50.958;6.770;2023-04-01T06:54:33;10.60;99.90
2647;DHT22;1333;50.958;6.770;2023-04-01T06:57:05;10.50;99.90
2647;DHT22;1333;50.958;6.770;2023-04-01T06:59:35;10.50;99.90
2647;DHT22;1333;50.958;6.770;2023-04-01T07:02:29;10.50;99.90
2647;DHT22;1333;50.958;6.770;2023-04-01T07:04:58;10.40;99.90
2647;DHT22;1333;50.958;6.770;2023-04-01T07:07:41;10.40;99.90
2647;DHT22;1333;50.958;6.770;2023-04-01T07:10:28;10.40;99.90
2647;DHT22;1333;50.958;6.770;2023-04-01T07:12:58;10.40;99.90
2647;DHT22;1333;50.958;6.770;2023-04-01T07:15:39;10.50;99.90
2647;DHT22;1333;50.958;6.770;2023-04-01T07:18:19;10.50;99.90
2647;DHT22;1333;50.958;6.770;2023-04-01T07:20:48;10.50;99.90
2647;DHT22;1333;50.958;6.770;2023-04-01T07:23:23;10.40;99.90
2647;DHT22;1333;50.958;6.770;2023-04-01T07:26:00;10.40;99.90
2647;DHT22;1333;50.958;6.770;2023-04-01T07:28:31;10.40;99.90
2647;DHT22;1333;50.958;6.770;2023-04-01T07:36:21;10.80;99.90
2647;DHT22;1333;50.958;6.770;2023-04-01T07:38:54;10.80;99.90
2647;DHT22;1333;50.958;6.770;2023-04-01T07:44:44;10.70;99.90
2647;DHT22;1333;50.958;6.770;2023-04-01T07:47:43;10.70;99.90
2647;DHT22;1333;50.958;6.770;2023-04-01T07:52:54;10.50;99.90
2647;DHT22;1333;50.958;6.770;2023-04-01T07:55:30;10.50;99.90
2647;DHT22;1333;50.958;6.770;2023-04-01T08:01:02;10.50;99.90
2647;DHT22;1333;50.958;6.770;2023-04-01T08:03:51;10.50;99.90
2647;DHT22;1333;50.958;6.770;2023-04-01T08:06:27;10.40;99.90
2647;DHT22;1333;50.958;6.770;2023-04-01T08:09:26;10.40;99.90
2647;DHT22;1333;50.958;6.770;2023-04-01T08:18:01;10.60;99.90
2647;DHT22;1333;50.958;6.770;2023-04-01T08:23:33;10.70;99.90
2647;DHT22;1333;50.958;6.770;2023-04-01T08:29:42;10.90;99.90
2647;DHT22;1333;50.958;6.770;2023-04-01T08:32:05;11.00;99.90
2647;DHT22;1333;50.958;6.770;2023-04-01T08:34:38;11.10;99.90
2647;DHT22;1333;50.958;6.770;2023-04-01T08:37:17;11.10;99.90
2647;DHT22;1333;50.958;6.770;2023-04-01T08:39:48;11.40;99.90
2647;DHT22;1333;50.958;6.770;2023-04-01T08:45:22;11.70;99.90
2647;DHT22;1333;50.958;6.770;2023-04-01T08:59:53;11.50;99.90
2647;DHT22;1333;50.958;6.770;2023-04-01T09:02:36;11.60;99.90
2647;DHT22;1333;50.958;6.770;2023-04-01T09:05:29;11.70;99.90
2647;DHT22;1333;50.958;6.770;2023-04-01T09:10:59;11.90;99.90
2647;DHT22;1333;50.958;6.770;2023-04-01T09:16:24;11.80;99.90
2647;DHT22;1333;50.958;6.770;2023-04-01T09:19:13;11.90;99.90
2647;DHT22;1333;50.958;6.770;2023-04-01T09:28:01;11.90;99.90
2647;DHT22;1333;50.958;6.770;2023-04-01T09:41:32;12.30;99.90
2647;DHT22;1333;50.958;6.770;2023-04-01T09:47:02;12.20;99.90
2647;DHT22;1333;50.958;6.770;2023-04-01T09:49:39;12.50;99.90
2647;DHT22;1333;50.958;6.770;2023-04-01T10:00:33;12.40;99.90
2647;DHT22;1333;50.958;6.770;2023-04-01T10:08:49;12.40;99.90
2647;DHT22;1333;50.958;6.770;2023-04-01T10:20:05;12.60;99.90
2647;DHT22;1333;50.958;6.770;2023-04-01T10:30:21;12.60;99.90
2647;DHT22;1333;50.958;6.770;2023-04-01T10:39:08;12.80;99.90
2647;DHT22;1333;50.958;6.770;2023-04-01T10:41:57;13.00;99.90
2647;DHT22;1333;50.958;6.770;2023-04-01T10:44:39;13.10;99.90
2647;DHT22;1333;50.958;6.770;2023-04-01T10:56:51;13.50;99.90
2647;DHT22;1333;50.958;6.770;2023-04-01T11:19:32;13.90;99.90
2647;DHT22;1333;50.958;6.770;2023-04-01T11:34:30;14.30;99.90
2647;DHT22;1333;50.958;6.770;2023-04-01T11:39:37;14.10;99.90
2647;DHT22;1333;50.958;6.770;2023-04-01T11:53:52;13.40;99.90
2647;DHT22;1333;50.958;6.770;2023-04-01T12:02:42;14.00;99.90
2647;DHT22;1333;50.958;6.770;2023-04-01T12:05:34;14.30;99.90
2647;DHT22;1333;50.958;6.770;2023-04-01T12:11:16;14.50;99.90
2647;DHT22;1333;50.958;6.770;2023-04-01T12:14:16;14.70;99.90
2647;DHT22;1333;50.958;6.770;2023-04-01T12:16:46;14.50;99.90
2647;DHT22;1333;50.958;6.770;2023-04-01T12:22:20;14.90;99.90
2647;DHT22;1333;50.958;6.770;2023-04-01T12:27:43;15.00;99.90
2647;DHT22;1333;50.958;6.770;2023-04-01T12:30:14;15.20;99.90
2647;DHT22;1333;50.958;6.770;2023-04-01T12:36:46;15.30;99.90
2647;DHT22;1333;50.958;6.770;2023-04-01T12:41:52;15.30;99.90
2647;DHT22;1333;50.958;6.770;2023-04-01T12:47:27;15.00;99.90
2647;DHT22;1333;50.958;6.770;2023-04-01T13:01:19;14.50;99.90
2647;DHT22;1333;50.958;6.770;2023-04-01T13:06:52;14.40;99.90
2647;DHT22;1333;50.958;6.770;2023-04-01T13:09:45;14.30;99.90
2647;DHT22;1333;50.958;6.770;2023-04-01T13:28:53;13.90;99.90
2647;DHT22;1333;50.958;6.770;2023-04-01T13:31:35;13.70;99.90
2647;DHT22;1333;50.958;6.770;2023-04-01T13:34:13;13.90;99.90
2647;DHT22;1333;50.958;6.770;2023-04-01T13:39:45;13.90;99.90
2647;DHT22;1333;50.958;6.770;2023-04-01T13:42:36;13.80;99.90
2647;DHT22;1333;50.958;6.770;2023-04-01T13:45:17;13.40;99.90
2647;DHT22;1333;50.958;6.770;2023-04-01T13:56:37;14.40;99.90
2647;DHT22;1333;50.958;6.770;2023-04-01T14:07:53;14.30;99.90
2647;DHT22;1333;50.958;6.770;2023-04-01T14:10:56;14.00;99.90
2647;DHT22;1333;50.958;6.770;2023-04-01T14:16:55;13.80;99.90
2647;DHT22;1333;50.958;6.770;2023-04-01T14:19:41;13.70;99.90
2647;DHT22;1333;50.958;6.770;2023-04-01T14:30:57;13.30;99.90
2647;DHT22;1333;50.958;6.770;2023-04-01T14:33:37;13.30;99.90
2647;DHT22;1333;50.958;6.770;2023-04-01T14:52:23;13.70;99.90
2647;DHT22;1333;50.958;6.770;2023-04-01T14:54:51;13.60;99.90
2647;DHT22;1333;50.958;6.770;2023-04-01T14:57:31;13.60;99.90
2647;DHT22;1333;50.958;6.770;2023-04-01T15:00:15;13.30;99.90
2647;DHT22;1333;50.958;6.770;2023-04-01T15:03:08;13.40;99.90
2647;DHT22;1333;50.958;6.770;2023-04-01T15:06:01;13.40;99.90
2647;DHT22;1333;50.958;6.770;2023-04-01T15:08:50;13.40;99.90
2647;DHT22;1333;50.958;6.770;2023-04-01T15:27:55;13.50;99.90
2647;DHT22;1333;50.958;6.770;2023-04-01T15:33:29;13.40;99.90
2647;DHT22;1333;50.958;6.770;2023-04-01T15:39:13;13.20;99.90
2647;DHT22;1333;50.958;6.770;2023-04-01T15:42:04;13.20;99.90
2647;DHT22;1333;50.958;6.770;2023-04-01T15:49:50;13.20;99.90
2647;DHT22;1333;50.958;6.770;2023-04-01T15:52:43;13.10;99.90
2647;DHT22;1333;50.958;6.770;2023-04-01T15:55:31;13.10;99.90
2647;DHT22;1333;50.958;6.770;2023-04-01T16:03:23;13.40;99.90
2647;DHT22;1333;50.958;6.770;2023-04-01T16:06:15;13.50;99.90
2647;DHT22;1333;50.958;6.770;2023-04-01T16:19:33;13.20;99.90
2647;DHT22;1333;50.958;6.770;2023-04-01T16:22:16;13.00;99.90
2647;DHT22;1333;50.958;6.770;2023-04-01T16:30:35;12.70;99.90
2647;DHT22;1333;50.958;6.770;2023-04-01T16:33:05;12.70;99.90
2647;DHT22;1333;50.958;6.770;2023-04-01T16:35:54;12.60;99.90
2647;DHT22;1333;50.958;6.770;2023-04-01T16:38:36;12.60;99.90
2647;DHT22;1333;50.958;6.770;2023-04-01T16:43:58;12.50;99.90
2647;DHT22;1333;50.958;6.770;2023-04-01T16:46:39;12.50;99.90
2647;DHT22;1333;50.958;6.770;2023-04-01T16:51:40;12.50;99.90
2647;DHT22;1333;50.958;6.770;2023-04-01T16:57:26;12.40;99.90
2647;DHT22;1333;50.958;6.770;2023-04-01T17:00:24;12.30;99.90
2647;DHT22;1333;50.958;6.770;2023-04-01T17:03:11;12.30;99.90
2647;DHT22;1333;50.958;6.770;2023-04-01T17:17:00;11.80;99.90
2647;DHT22;1333;50.958;6.770;2023-04-01T17:19:46;11.90;99.90
2647;DHT22;1333;50.958;6.770;2023-04-01T17:25:09;11.80;99.90
2647;DHT22;1333;50.958;6.770;2023-04-01T17:30:44;11.60;99.90
2647;DHT22;1333;50.958;6.770;2023-04-01T17:41:47;11.40;99.90
2647;DHT22;1333;50.958;6.770;2023-04-01T17:52:51;11.20;99.90
2647;DHT22;1333;50.958;6.770;2023-04-01T17:58:10;11.10;99.90
2647;DHT22;1333;50.958;6.770;2023-04-01T18:08:45;10.80;99.90
2647;DHT22;1333;50.958;6.770;2023-04-01T18:11:34;10.80;99.90
2647;DHT22;1333;50.958;6.770;2023-04-01T18:14:31;10.80;99.90
2647;DHT22;1333;50.958;6.770;2023-04-01T18:20:12;10.60;99.90
2647;DHT22;1333;50.958;6.770;2023-04-01T18:25:41;10.50;99.90
2647;DHT22;1333;50.958;6.770;2023-04-01T18:28:51;10.40;99.90
2647;DHT22;1333;50.958;6.770;2023-04-01T18:31:20;10.50;99.90
2647;DHT22;1333;50.958;6.770;2023-04-01T18:34:14;10.50;99.90
2647;DHT22;1333;50.958;6.770;2023-04-01T18:36:44;10.50;99.90
2647;DHT22;1333;50.958;6.770;2023-04-01T18:42:03;10.30;99.90
2647;DHT22;1333;50.958;6.770;2023-04-01T18:44:51;10.40;99.90
2647;DHT22;1333;50.958;6.770;2023-04-01T18:50:24;10.40;99.90
2647;DHT22;1333;50.958;6.770;2023-04-01T18:53:14;10.40;99.90
2647;DHT22;1333;50.958;6.770;2023-04-01T18:55:46;10.40;99.90
2647;DHT22;1333;50.958;6.770;2023-04-01T19:00:46;10.50;99.90
2647;DHT22;1333;50.958;6.770;2023-04-01T19:03:34;10.40;99.90
2647;DHT22;1333;50.958;6.770;2023-04-01T19:08:48;10.40;99.90
2647;DHT22;1333;50.958;6.770;2023-04-01T19:16:53;10.40;99.90
2647;DHT22;1333;50.958;6.770;2023-04-01T19:19:29;10.40;99.90
2647;DHT22;1333;50.958;6.770;2023-04-01T19:22:12;10.30;99.90
2647;DHT22;1333;50.958;6.770;2023-04-01T19:24:51;10.20;99.90
2647;DHT22;1333;50.958;6.770;2023-04-01T19:27:34;10.30;99.90
2647;DHT22;1333;50.958;6.770;2023-04-01T19:30:14;10.30;99.90
2647;DHT22;1333;50.958;6.770;2023-04-01T19:33:08;10.20;99.90
2647;DHT22;1333;50.958;6.770;2023-04-01T19:38:39;10.20;99.90
2647;DHT22;1333;50.958;6.770;2023-04-01T19:43:59;10.20;99.90
2647;DHT22;1333;50.958;6.770;2023-04-01T19:46:33;10.20;99.90
2647;DHT22;1333;50.958;6.770;2023-04-01T19:52:20;10.30;99.90
2647;DHT22;1333;50.958;6.770;2023-04-01T19:58:41;10.30;99.90
2647;DHT22;1333;50.958;6.770;2023-04-01T20:00:51;10.20;99.90
2647;DHT22;1333;50.958;6.770;2023-04-01T20:09:48;10.10;99.90
2647;DHT22;1333;50.958;6.770;2023-04-01T20:15:35;10.10;99.90
2647;DHT22;1333;50.958;6.770;2023-04-01T20:18:25;10.20;99.90
2647;DHT22;1333;50.958;6.770;2023-04-01T20:21:30;10.20;99.90
2647;DHT22;1333;50.958;6.770;2023-04-01T20:26:41;10.20;99.90
2647;DHT22;1333;50.958;6.770;2023-04-01T20:32:06;10.20;99.90
2647;DHT22;1333;50.958;6.770;2023-04-01T20:37:35;10.20;99.90
2647;DHT22;1333;50.958;6.770;2023-04-01T20:43:00;10.10;99.90
2647;DHT22;1333;50.958;6.770;2023-04-01T21:02:23;10.10;99.90
2647;DHT22;1333;50.958;6.770;2023-04-01T21:05:21;10.00;99.90
2647;DHT22;1333;50.958;6.770;2023-04-01T21:09:01;10.00;99.90
2647;DHT22;1333;50.958;6.770;2023-04-01T21:14:01;10.00;99.90
2647;DHT22;1333;50.958;6.770;2023-04-01T21:17:12;9.90;99.90
2647;DHT22;1333;50.958;6.770;2023-04-01T21:19:52;9.80;99.90
2647;DHT22;1333;50.958;6.770;2023-04-01T21:25:44;9.80;99.90
2647;DHT22;1333;50.958;6.770;2023-04-01T21:28:28;9.80;99.90
2647;DHT22;1333;50.958;6.770;2023-04-01T21:41:45;9.70;99.90
2647;DHT22;1333;50.958;6.770;2023-04-01T21:50:25;9.80;99.90
2647;DHT22;1333;50.958;6.770;2023-04-01T21:56:00;9.90;99.90
2647;DHT22;1333;50.958;6.770;2023-04-01T22:06:40;10.00;99.90
2647;DHT22;1333;50.958;6.770;2023-04-01T22:20:17;10.30;99.90
2647;DHT22;1333;50.958;6.770;2023-04-01T22:23:12;10.40;99.90
2647;DHT22;1333;50.958;6.770;2023-04-01T22:25:48;10.50;99.90
2647;DHT22;1333;50.958;6.770;2023-04-01T22:30:52;10.50;99.90
2647;DHT22;1333;50.958;6.770;2023-04-01T22:36:28;10.50;99.90
2647;DHT22;1333;50.958;6.770;2023-04-01T22:41:38;10.60;99.90
2647;DHT22;1333;50.958;6.770;2023-04-01T22:44:26;10.60;99.90
2647;DHT22;1333;50.958;6.770;2023-04-01T22:46:59;10.50;99.90
2647;DHT22;1333;50.958;6.770;2023-04-01T22:50:26;10.50;99.90
2647;DHT22;1333;50.958;6.770;2023-04-01T22:52:43;10.60;99.90
2647;DHT22;1333;50.958;6.770;2023-04-01T22:55:25;10.50;99.90
2647;DHT22;1333;50.958;6.770;2023-04-01T22:58:09;10.60;99.90
2647;DHT22;1333;50.958;6.770;2023-04-01T23:00:48;10.50;99.90
2647;DHT22;1333;50.958;6.770;2023-04-01T23:03:21;10.50;99.90
2647;DHT22;1333;50.958;6.770;2023-04-01T23:05:58;10.50;99.90
2647;DHT22;1333;50.958;6.770;2023-04-01T23:10:58;10.40;99.90
2647;DHT22;1333;50.958;6.770;2023-04-01T23:13:35;10.30;99.90
2647;DHT22;1333;50.958;6.770;2023-04-01T23:16:04;10.20;99.90
2647;DHT22;1333;50.958;6.770;2023-04-01T23:18:57;10.20;99.90
2647;DHT22;1333;50.958;6.770;2023-04-01T23:21:41;10.20;99.90
2647;DHT22;1333;50.958;6.770;2023-04-01T23:24:30;10.10;99.90
2647;DHT22;1333;50.958;6.770;2023-04-01T23:27:18;10.10;99.90
2647;DHT22;1333;50.958;6.770;2023-04-01T23:29:45;10.00;99.90
2647;DHT22;1333;50.958;6.770;2023-04-01T23:32:32;10.00;99.90
2647;DHT22;1333;50.958;6.770;2023-04-01T23:34:59;10.10;99.90
2647;DHT22;1333;50.958;6.770;2023-04-01T23:37:26;10.00;99.90
2647;DHT22;1333;50.958;6.770;2023-04-01T23:39:54;10.00;99.90
2647;DHT22;1333;50.958;6.770;2023-04-01T23:42:26;10.00;99.90
2647;DHT22;1333;50.958;6.770;2023-04-01T23:44:58;9.90;99.90
2647;DHT22;1333;50.958;6.770;2023-04-01T23:47:28;9.90;99.90
2647;DHT22;1333;50.958;6.770;2023-04-01T23:49:58;9.90;99.90
2647;DHT22;1333;50.958;6.770;2023-04-01T23:52:30;9.90;99.90
2647;DHT22;1333;50.958;6.770;2023-04-01T23:57:41;9.80;99.90
